sensor_id;sensor_type;location;lat;lon;timestamp;pressure;altitude;pressure_sealevel;temperature;humidity
12987;BME280;58897;51.960;5.582;2023-07-16T00:00:21;100511.56;;;18.97;100.00
12987;BME280;58897;51.960;5.582;2023-07-16T00:02:48;100506.09;;;18.97;100.00
12987;BME280;58897;51.960;5.582;2023-07-16T00:05:15;100506.16;;;18.91;100.00
12987;BME280;58897;51.960;5.582;2023-07-16T00:07:42;100517.47;;;18.76;100.00
12987;BME280;58897;51.960;5.582;2023-07-16T00:10:09;100518.75;;;18.74;100.00
12987;BME280;58897;51.960;5.582;2023-07-16T00:12:36;100515.88;;;18.62;100.00
12987;BME280;58897;51.960;5.582;2023-07-16T00:15:04;100504.16;;;18.80;100.00
12987;BME280;58897;51.960;5.582;2023-07-16T00:17:34;100512.94;;;18.64;100.00
12987;BME280;58897;51.960;5.582;2023-07-16T00:20:01;100513.00;;;18.82;100.00
12987;BME280;58897;51.960;5.582;2023-07-16T00:22:28;100510.22;;;18.64;100.00
12987;BME280;58897;51.960;5.582;2023-07-16T00:24:57;100520.63;;;18.73;100.00
12987;BME280;58897;51.960;5.582;2023-07-16T00:27:23;100527.41;;;18.71;100.00
12987;BME280;58897;51.960;5.582;2023-07-16T00:29:50;100530.06;;;18.53;100.00
12987;BME280;58897;51.960;5.582;2023-07-16T00:32:16;100522.03;;;18.26;100.00
12987;BME280;58897;51.960;5.582;2023-07-16T00:34:43;100526.06;;;18.17;100.00
12987;BME280;58897;51.960;5.582;2023-07-16T00:37:10;100517.34;;;18.02;100.00
12987;BME280;58897;51.960;5.582;2023-07-16T00:39:37;100521.75;;;18.03;100.00
12987;BME280;58897;51.960;5.582;2023-07-16T00:42:04;100516.19;;;17.85;100.00
12987;BME280;58897;51.960;5.582;2023-07-16T00:44:31;100524.38;;;17.85;100.00
12987;BME280;58897;51.960;5.582;2023-07-16T00:46:57;100517.84;;;17.86;100.00
12987;BME280;58897;51.960;5.582;2023-07-16T00:49:24;100518.47;;;17.88;100.00
12987;BME280;58897;51.960;5.582;2023-07-16T00:51:52;100521.47;;;17.80;100.00
12987;BME280;58897;51.960;5.582;2023-07-16T00:54:19;100521.00;;;17.89;100.00
12987;BME280;58897;51.960;5.582;2023-07-16T00:56:46;100526.50;;;17.76;100.00
12987;BME280;58897;51.960;5.582;2023-07-16T00:59:13;100524.34;;;17.92;100.00
12987;BME280;58897;51.960;5.582;2023-07-16T01:01:40;100522.25;;;17.94;100.00
12987;BME280;58897;51.960;5.582;2023-07-16T01:04:07;100531.06;;;17.96;100.00
12987;BME280;58897;51.960;5.582;2023-07-16T01:06:38;100518.47;;;17.88;100.00
12987;BME280;58897;51.960;5.582;2023-07-16T01:09:16;100523.94;;;17.88;100.00
12987;BME280;58897;51.960;5.582;2023-07-16T01:11:44;100517.81;;;17.93;100.00
12987;BME280;58897;51.960;5.582;2023-07-16T01:14:12;100526.03;;;17.86;100.00
12987;BME280;58897;51.960;5.582;2023-07-16T01:16:40;100525.59;;;17.89;100.00
12987;BME280;58897;51.960;5.582;2023-07-16T01:19:08;100516.88;;;17.74;100.00
12987;BME280;58897;51.960;5.582;2023-07-16T01:30:08;100520.94;;;17.45;100.00
12987;BME280;58897;51.960;5.582;2023-07-16T01:32:38;100518.81;;;17.47;100.00
12987;BME280;58897;51.960;5.582;2023-07-16T01:35:05;100520.09;;;17.51;100.00
12987;BME280;58897;51.960;5.582;2023-07-16T01:37:32;100530.03;;;17.33;100.00
12987;BME280;58897;51.960;5.582;2023-07-16T01:39:59;100523.75;;;17.25;100.00
12987;BME280;58897;51.960;5.582;2023-07-16T01:42:26;100514.28;;;17.21;100.00
12987;BME280;58897;51.960;5.582;2023-07-16T01:44:52;100516.13;;;17.34;100.00
12987;BME280;58897;51.960;5.582;2023-07-16T01:47:24;100523.75;;;17.19;100.00
12987;BME280;58897;51.960;5.582;2023-07-16T01:49:55;100525.44;;;17.20;100.00
12987;BME280;58897;51.960;5.582;2023-07-16T01:52:25;100526.28;;;17.20;100.00
12987;BME280;58897;51.960;5.582;2023-07-16T01:54:51;100520.41;;;17.10;100.00
12987;BME280;58897;51.960;5.582;2023-07-16T01:57:18;100525.69;;;16.99;100.00
12987;BME280;58897;51.960;5.582;2023-07-16T01:59:44;100524.63;;;17.06;100.00
12987;BME280;58897;51.960;5.582;2023-07-16T02:02:12;100515.59;;;17.12;100.00
12987;BME280;58897;51.960;5.582;2023-07-16T02:04:39;100516.69;;;16.92;100.00
12987;BME280;58897;51.960;5.582;2023-07-16T02:07:05;100517.31;;;16.81;100.00
12987;BME280;58897;51.960;5.582;2023-07-16T02:09:33;100516.91;;;16.84;100.00
12987;BME280;58897;51.960;5.582;2023-07-16T02:12:00;100518.16;;;16.81;100.00
12987;BME280;58897;51.960;5.582;2023-07-16T02:14:26;100522.75;;;16.94;100.00
12987;BME280;58897;51.960;5.582;2023-07-16T02:16:53;100520.69;;;16.76;100.00
12987;BME280;58897;51.960;5.582;2023-07-16T02:19:19;100527.38;;;16.67;100.00
12987;BME280;58897;51.960;5.582;2023-07-16T02:21:46;100527.78;;;16.90;100.00
12987;BME280;58897;51.960;5.582;2023-07-16T02:24:13;100534.09;;;16.64;100.00
12987;BME280;58897;51.960;5.582;2023-07-16T02:26:39;100527.81;;;16.71;100.00
12987;BME280;58897;51.960;5.582;2023-07-16T02:29:06;100526.97;;;16.63;100.00
12987;BME280;58897;51.960;5.582;2023-07-16T02:31:36;100526.75;;;16.72;100.00
12987;BME280;58897;51.960;5.582;2023-07-16T02:34:03;100533.66;;;16.74;100.00
12987;BME280;58897;51.960;5.582;2023-07-16T02:36:29;100540.81;;;16.68;100.00
12987;BME280;58897;51.960;5.582;2023-07-16T02:38:56;100539.34;;;16.73;100.00
12987;BME280;58897;51.960;5.582;2023-07-16T02:41:22;100533.69;;;16.67;100.00
12987;BME280;58897;51.960;5.582;2023-07-16T02:43:59;100531.16;;;16.86;100.00
12987;BME280;58897;51.960;5.582;2023-07-16T02:46:26;100531.59;;;16.76;100.00
12987;BME280;58897;51.960;5.582;2023-07-16T02:48:52;100541.25;;;16.52;100.00
12987;BME280;58897;51.960;5.582;2023-07-16T02:51:19;100537.00;;;16.50;100.00
12987;BME280;58897;51.960;5.582;2023-07-16T02:53:46;100541.00;;;16.47;100.00
12987;BME280;58897;51.960;5.582;2023-07-16T02:56:12;100535.72;;;16.46;100.00
12987;BME280;58897;51.960;5.582;2023-07-16T02:58:39;100540.56;;;16.44;100.00
12987;BME280;58897;51.960;5.582;2023-07-16T03:01:06;100539.34;;;16.59;100.00
12987;BME280;58897;51.960;5.582;2023-07-16T03:03:33;100538.69;;;16.51;100.00
12987;BME280;58897;51.960;5.582;2023-07-16T03:06:02;100547.69;;;16.51;100.00
12987;BME280;58897;51.960;5.582;2023-07-16T03:08:28;100536.19;;;16.56;100.00
12987;BME280;58897;51.960;5.582;2023-07-16T03:10:57;100540.59;;;16.57;100.00
12987;BME280;58897;51.960;5.582;2023-07-16T03:13:24;100553.13;;;16.38;100.00
12987;BME280;58897;51.960;5.582;2023-07-16T03:15:51;100556.06;;;16.30;100.00
12987;BME280;58897;51.960;5.582;2023-07-16T03:18:20;100561.09;;;16.33;100.00
12987;BME280;58897;51.960;5.582;2023-07-16T03:20:47;100558.09;;;16.08;100.00
12987;BME280;58897;51.960;5.582;2023-07-16T03:23:13;100566.72;;;16.05;100.00
12987;BME280;58897;51.960;5.582;2023-07-16T03:25:40;100566.34;;;16.28;100.00
12987;BME280;58897;51.960;5.582;2023-07-16T03:28:06;100561.69;;;16.22;100.00
12987;BME280;58897;51.960;5.582;2023-07-16T03:30:33;100559.59;;;16.24;100.00
12987;BME280;58897;51.960;5.582;2023-07-16T03:32:59;100554.59;;;16.41;100.00
12987;BME280;58897;51.960;5.582;2023-07-16T03:35:26;100554.81;;;16.33;100.00
12987;BME280;58897;51.960;5.582;2023-07-16T03:37:53;100550.63;;;16.43;100.00
12987;BME280;58897;51.960;5.582;2023-07-16T03:40:24;100549.78;;;16.36;100.00
12987;BME280;58897;51.960;5.582;2023-07-16T03:42:51;100565.91;;;16.38;100.00
12987;BME280;58897;51.960;5.582;2023-07-16T03:45:18;100557.94;;;16.30;100.00
12987;BME280;58897;51.960;5.582;2023-07-16T03:47:45;100582.09;;;16.39;100.00
12987;BME280;58897;51.960;5.582;2023-07-16T03:50:12;100564.69;;;16.47;100.00
12987;BME280;58897;51.960;5.582;2023-07-16T03:52:38;100579.16;;;16.41;100.00
12987;BME280;58897;51.960;5.582;2023-07-16T03:55:07;100577.25;;;16.48;100.00
12987;BME280;58897;51.960;5.582;2023-07-16T03:57:40;100572.66;;;16.48;100.00
12987;BME280;58897;51.960;5.582;2023-07-16T04:00:07;100583.81;;;16.53;100.00
12987;BME280;58897;51.960;5.582;2023-07-16T04:02:36;100584.88;;;16.52;100.00
12987;BME280;58897;51.960;5.582;2023-07-16T04:05:03;100588.41;;;16.53;100.00
12987;BME280;58897;51.960;5.582;2023-07-16T04:07:29;100598.50;;;16.59;100.00
12987;BME280;58897;51.960;5.582;2023-07-16T04:09:57;100601.16;;;16.46;100.00
12987;BME280;58897;51.960;5.582;2023-07-16T04:12:24;100605.38;;;16.48;100.00
12987;BME280;58897;51.960;5.582;2023-07-16T04:14:56;100600.31;;;16.45;100.00
12987;BME280;58897;51.960;5.582;2023-07-16T04:17:23;100601.00;;;16.54;100.00
12987;BME280;58897;51.960;5.582;2023-07-16T04:19:50;100601.63;;;16.56;100.00
12987;BME280;58897;51.960;5.582;2023-07-16T04:22:17;100611.88;;;16.47;100.00
12987;BME280;58897;51.960;5.582;2023-07-16T04:24:43;100616.28;;;16.48;100.00
12987;BME280;58897;51.960;5.582;2023-07-16T04:27:10;100615.84;;;16.38;100.00
12987;BME280;58897;51.960;5.582;2023-07-16T04:29:36;100609.78;;;16.49;100.00
12987;BME280;58897;51.960;5.582;2023-07-16T04:32:03;100612.13;;;16.52;100.00
12987;BME280;58897;51.960;5.582;2023-07-16T04:34:30;100611.09;;;16.60;100.00
12987;BME280;58897;51.960;5.582;2023-07-16T04:36:57;100603.53;;;16.62;100.00
12987;BME280;58897;51.960;5.582;2023-07-16T04:39:23;100620.31;;;16.59;100.00
12987;BME280;58897;51.960;5.582;2023-07-16T04:41:50;100623.03;;;16.59;100.00
12987;BME280;58897;51.960;5.582;2023-07-16T04:44:16;100607.69;;;16.51;100.00
12987;BME280;58897;51.960;5.582;2023-07-16T04:46:43;100615.91;;;16.58;100.00
12987;BME280;58897;51.960;5.582;2023-07-16T04:49:09;100618.22;;;16.61;100.00
12987;BME280;58897;51.960;5.582;2023-07-16T04:51:36;100614.81;;;16.46;100.00
12987;BME280;58897;51.960;5.582;2023-07-16T04:54:02;100621.16;;;16.59;100.00
12987;BME280;58897;51.960;5.582;2023-07-16T04:56:29;100629.75;;;16.56;100.00
12987;BME280;58897;51.960;5.582;2023-07-16T04:58:55;100630.97;;;16.47;100.00
12987;BME280;58897;51.960;5.582;2023-07-16T05:01:22;100629.56;;;16.58;100.00
12987;BME280;58897;51.960;5.582;2023-07-16T05:03:48;100630.81;;;16.68;100.00
12987;BME280;58897;51.960;5.582;2023-07-16T05:06:15;100641.97;;;16.74;100.00
12987;BME280;58897;51.960;5.582;2023-07-16T05:08:42;100641.72;;;16.62;100.00
12987;BME280;58897;51.960;5.582;2023-07-16T05:11:12;100638.38;;;16.60;100.00
12987;BME280;58897;51.960;5.582;2023-07-16T05:13:39;100643.59;;;16.61;100.00
12987;BME280;58897;51.960;5.582;2023-07-16T05:16:05;100650.34;;;16.72;100.00
12987;BME280;58897;51.960;5.582;2023-07-16T05:18:32;100653.28;;;16.71;100.00
12987;BME280;58897;51.960;5.582;2023-07-16T05:20:58;100650.75;;;16.76;100.00
12987;BME280;58897;51.960;5.582;2023-07-16T05:23:25;100646.16;;;16.89;100.00
12987;BME280;58897;51.960;5.582;2023-07-16T05:25:53;100649.09;;;16.81;100.00
12987;BME280;58897;51.960;5.582;2023-07-16T05:28:20;100653.72;;;16.81;100.00
12987;BME280;58897;51.960;5.582;2023-07-16T05:30:46;100662.06;;;16.79;100.00
12987;BME280;58897;51.960;5.582;2023-07-16T05:33:13;100664.81;;;16.73;100.00
12987;BME280;58897;51.960;5.582;2023-07-16T05:35:39;100662.94;;;16.80;100.00
12987;BME280;58897;51.960;5.582;2023-07-16T05:38:06;100670.69;;;16.83;100.00
12987;BME280;58897;51.960;5.582;2023-07-16T05:40:33;100675.31;;;16.82;100.00
12987;BME280;58897;51.960;5.582;2023-07-16T05:43:00;100673.88;;;16.86;100.00
12987;BME280;58897;51.960;5.582;2023-07-16T05:45:26;100677.84;;;16.90;100.00
12987;BME280;58897;51.960;5.582;2023-07-16T05:47:53;100675.31;;;16.95;100.00
12987;BME280;58897;51.960;5.582;2023-07-16T05:50:20;100686.25;;;16.89;100.00
12987;BME280;58897;51.960;5.582;2023-07-16T05:52:46;100681.63;;;16.89;100.00
12987;BME280;58897;51.960;5.582;2023-07-16T05:55:14;100692.31;;;16.97;100.00
12987;BME280;58897;51.960;5.582;2023-07-16T05:57:41;100699.25;;;16.93;100.00
12987;BME280;58897;51.960;5.582;2023-07-16T06:00:08;100709.13;;;16.88;100.00
12987;BME280;58897;51.960;5.582;2023-07-16T06:02:35;100694.66;;;16.94;100.00
12987;BME280;58897;51.960;5.582;2023-07-16T06:05:02;100697.19;;;17.02;100.00
12987;BME280;58897;51.960;5.582;2023-07-16T06:07:29;100698.00;;;17.09;100.00
12987;BME280;58897;51.960;5.582;2023-07-16T06:09:56;100701.59;;;17.16;100.00
12987;BME280;58897;51.960;5.582;2023-07-16T06:12:22;100709.56;;;17.04;100.00
12987;BME280;58897;51.960;5.582;2023-07-16T06:14:49;100707.69;;;17.05;100.00
12987;BME280;58897;51.960;5.582;2023-07-16T06:17:15;100707.25;;;17.14;100.00
12987;BME280;58897;51.960;5.582;2023-07-16T06:19:42;100716.09;;;17.23;100.00
12987;BME280;58897;51.960;5.582;2023-07-16T06:22:09;100715.66;;;17.19;100.00
12987;BME280;58897;51.960;5.582;2023-07-16T06:24:36;100695.50;;;17.27;100.00
12987;BME280;58897;51.960;5.582;2023-07-16T06:27:02;100696.56;;;17.46;100.00
12987;BME280;58897;51.960;5.582;2023-07-16T06:29:29;100700.34;;;17.64;100.00
12987;BME280;58897;51.960;5.582;2023-07-16T06:31:59;100697.16;;;17.80;100.00
12987;BME280;58897;51.960;5.582;2023-07-16T06:34:26;100703.22;;;17.89;100.00
12987;BME280;58897;51.960;5.582;2023-07-16T06:36:52;100707.34;;;18.18;100.00
12987;BME280;58897;51.960;5.582;2023-07-16T06:39:20;100712.34;;;18.34;100.00
12987;BME280;58897;51.960;5.582;2023-07-16T06:41:46;100715.44;;;18.88;100.00
12987;BME280;58897;51.960;5.582;2023-07-16T06:44:13;100724.13;;;18.79;100.00
12987;BME280;58897;51.960;5.582;2023-07-16T06:46:39;100722.13;;;18.61;100.00
12987;BME280;58897;51.960;5.582;2023-07-16T06:49:06;100715.38;;;18.64;100.00
12987;BME280;58897;51.960;5.582;2023-07-16T06:51:35;100737.59;;;18.80;100.00
12987;BME280;58897;51.960;5.582;2023-07-16T06:54:02;100712.25;;;19.23;100.00
12987;BME280;58897;51.960;5.582;2023-07-16T06:56:29;100722.16;;;19.24;100.00
12987;BME280;58897;51.960;5.582;2023-07-16T06:58:55;100713.75;;;19.50;100.00
12987;BME280;58897;51.960;5.582;2023-07-16T07:01:22;100726.66;;;19.67;100.00
12987;BME280;58897;51.960;5.582;2023-07-16T07:03:49;100734.50;;;19.82;100.00
12987;BME280;58897;51.960;5.582;2023-07-16T07:06:15;100721.28;;;19.97;100.00
12987;BME280;58897;51.960;5.582;2023-07-16T07:08:43;100742.25;;;19.67;100.00
12987;BME280;58897;51.960;5.582;2023-07-16T07:11:09;100714.34;;;19.95;100.00
12987;BME280;58897;51.960;5.582;2023-07-16T07:13:36;100724.09;;;20.09;100.00
12987;BME280;58897;51.960;5.582;2023-07-16T07:16:03;100728.56;;;20.46;100.00
12987;BME280;58897;51.960;5.582;2023-07-16T07:18:29;100734.50;;;20.43;100.00
12987;BME280;58897;51.960;5.582;2023-07-16T07:20:56;100734.53;;;20.18;100.00
12987;BME280;58897;51.960;5.582;2023-07-16T07:23:23;100730.66;;;20.92;100.00
12987;BME280;58897;51.960;5.582;2023-07-16T07:25:50;100738.09;;;20.73;100.00
12987;BME280;58897;51.960;5.582;2023-07-16T07:28:19;100739.72;;;20.63;100.00
12987;BME280;58897;51.960;5.582;2023-07-16T07:30:45;100757.06;;;20.93;100.00
12987;BME280;58897;51.960;5.582;2023-07-16T07:33:12;100745.16;;;21.40;100.00
12987;BME280;58897;51.960;5.582;2023-07-16T07:35:39;100744.84;;;20.05;100.00
12987;BME280;58897;51.960;5.582;2023-07-16T07:38:05;100746.72;;;19.86;100.00
12987;BME280;58897;51.960;5.582;2023-07-16T07:40:32;100766.19;;;20.57;100.00
12987;BME280;58897;51.960;5.582;2023-07-16T07:42:59;100760.47;;;19.80;100.00
12987;BME280;58897;51.960;5.582;2023-07-16T07:45:26;100767.19;;;19.84;100.00
12987;BME280;58897;51.960;5.582;2023-07-16T07:47:53;100747.13;;;20.26;100.00
12987;BME280;58897;51.960;5.582;2023-07-16T07:50:20;100778.75;;;20.28;100.00
12987;BME280;58897;51.960;5.582;2023-07-16T07:52:46;100765.84;;;20.83;100.00
12987;BME280;58897;51.960;5.582;2023-07-16T07:55:13;100780.06;;;20.44;100.00
12987;BME280;58897;51.960;5.582;2023-07-16T07:57:40;100771.22;;;20.42;100.00
12987;BME280;58897;51.960;5.582;2023-07-16T08:00:07;100768.31;;;19.76;100.00
12987;BME280;58897;51.960;5.582;2023-07-16T08:02:38;100801.00;;;19.46;100.00
12987;BME280;58897;51.960;5.582;2023-07-16T08:05:05;100779.56;;;20.11;100.00
12987;BME280;58897;51.960;5.582;2023-07-16T08:07:32;100792.72;;;20.02;100.00
12987;BME280;58897;51.960;5.582;2023-07-16T08:09:59;100789.31;;;20.07;100.00
12987;BME280;58897;51.960;5.582;2023-07-16T08:12:26;100776.06;;;20.04;100.00
12987;BME280;58897;51.960;5.582;2023-07-16T08:14:52;100788.44;;;19.88;100.00
12987;BME280;58897;51.960;5.582;2023-07-16T08:17:20;100778.28;;;20.68;100.00
12987;BME280;58897;51.960;5.582;2023-07-16T08:19:49;100781.81;;;22.10;100.00
12987;BME280;58897;51.960;5.582;2023-07-16T08:22:16;100801.66;;;21.36;100.00
12987;BME280;58897;51.960;5.582;2023-07-16T08:24:43;100799.16;;;21.99;100.00
12987;BME280;58897;51.960;5.582;2023-07-16T08:27:09;100783.34;;;22.41;100.00
12987;BME280;58897;51.960;5.582;2023-07-16T08:29:36;100788.22;;;20.69;100.00
12987;BME280;58897;51.960;5.582;2023-07-16T08:32:03;100790.84;;;21.12;100.00
12987;BME280;58897;51.960;5.582;2023-07-16T08:34:30;100789.28;;;20.50;100.00
12987;BME280;58897;51.960;5.582;2023-07-16T08:36:57;100786.69;;;20.55;100.00
12987;BME280;58897;51.960;5.582;2023-07-16T08:39:24;100797.25;;;20.15;100.00
12987;BME280;58897;51.960;5.582;2023-07-16T08:41:52;100811.16;;;20.13;100.00
12987;BME280;58897;51.960;5.582;2023-07-16T08:44:20;100801.66;;;19.73;100.00
12987;BME280;58897;51.960;5.582;2023-07-16T08:46:46;100811.09;;;20.02;100.00
12987;BME280;58897;51.960;5.582;2023-07-16T08:49:17;100813.00;;;20.01;100.00
12987;BME280;58897;51.960;5.582;2023-07-16T08:51:48;100796.00;;;20.54;100.00
12987;BME280;58897;51.960;5.582;2023-07-16T08:54:15;100801.00;;;20.93;100.00
12987;BME280;58897;51.960;5.582;2023-07-16T08:56:43;100810.97;;;21.77;100.00
12987;BME280;58897;51.960;5.582;2023-07-16T08:59:10;100811.53;;;21.67;100.00
12987;BME280;58897;51.960;5.582;2023-07-16T09:01:37;100810.41;;;20.67;100.00
12987;BME280;58897;51.960;5.582;2023-07-16T09:04:04;100818.06;;;20.22;100.00
12987;BME280;58897;51.960;5.582;2023-07-16T09:06:30;100824.53;;;19.85;100.00
12987;BME280;58897;51.960;5.582;2023-07-16T09:08:58;100836.09;;;19.87;100.00
12987;BME280;58897;51.960;5.582;2023-07-16T09:11:25;100828.75;;;20.06;100.00
12987;BME280;58897;51.960;5.582;2023-07-16T09:13:51;100831.81;;;20.16;100.00
12987;BME280;58897;51.960;5.582;2023-07-16T09:16:18;100846.53;;;20.21;100.00
12987;BME280;58897;51.960;5.582;2023-07-16T09:18:45;100851.59;;;20.00;100.00
12987;BME280;58897;51.960;5.582;2023-07-16T09:21:12;100835.59;;;19.97;100.00
12987;BME280;58897;51.960;5.582;2023-07-16T09:23:39;100849.56;;;19.64;100.00
12987;BME280;58897;51.960;5.582;2023-07-16T09:26:07;100840.03;;;19.73;100.00
12987;BME280;58897;51.960;5.582;2023-07-16T09:28:34;100848.28;;;20.16;100.00
12987;BME280;58897;51.960;5.582;2023-07-16T09:31:07;100846.88;;;20.31;100.00
12987;BME280;58897;51.960;5.582;2023-07-16T09:33:34;100850.94;;;20.04;100.00
12987;BME280;58897;51.960;5.582;2023-07-16T09:36:03;100842.19;;;20.39;100.00
12987;BME280;58897;51.960;5.582;2023-07-16T09:38:29;100861.63;;;20.73;100.00
12987;BME280;58897;51.960;5.582;2023-07-16T09:40:57;100851.09;;;20.88;100.00
12987;BME280;58897;51.960;5.582;2023-07-16T09:43:24;100857.25;;;21.02;100.00
12987;BME280;58897;51.960;5.582;2023-07-16T09:45:51;100855.47;;;21.14;100.00
12987;BME280;58897;51.960;5.582;2023-07-16T09:48:17;100858.09;;;21.21;100.00
12987;BME280;58897;51.960;5.582;2023-07-16T09:50:53;100846.44;;;20.89;100.00
12987;BME280;58897;51.960;5.582;2023-07-16T09:53:20;100857.81;;;20.56;100.00
12987;BME280;58897;51.960;5.582;2023-07-16T09:55:48;100864.63;;;20.72;100.00
12987;BME280;58897;51.960;5.582;2023-07-16T09:58:18;100860.75;;;20.37;100.00
12987;BME280;58897;51.960;5.582;2023-07-16T10:00:47;100867.88;;;20.19;100.00
12987;BME280;58897;51.960;5.582;2023-07-16T10:03:15;100871.28;;;20.15;100.00
12987;BME280;58897;51.960;5.582;2023-07-16T10:05:44;100873.34;;;20.19;100.00
12987;BME280;58897;51.960;5.582;2023-07-16T10:08:20;100871.72;;;20.37;100.00
12987;BME280;58897;51.960;5.582;2023-07-16T10:10:54;100873.50;;;20.49;100.00
12987;BME280;58897;51.960;5.582;2023-07-16T10:13:24;100877.28;;;20.30;100.00
12987;BME280;58897;51.960;5.582;2023-07-16T10:15:53;100892.34;;;19.96;100.00
12987;BME280;58897;51.960;5.582;2023-07-16T10:18:27;100875.81;;;19.78;100.00
12987;BME280;58897;51.960;5.582;2023-07-16T10:21:07;100891.06;;;19.99;100.00
12987;BME280;58897;51.960;5.582;2023-07-16T10:23:44;100897.28;;;20.12;100.00
12987;BME280;58897;51.960;5.582;2023-07-16T10:26:15;100891.22;;;20.04;100.00
12987;BME280;58897;51.960;5.582;2023-07-16T10:28:46;100893.16;;;20.21;100.00
12987;BME280;58897;51.960;5.582;2023-07-16T10:31:23;100913.72;;;20.37;100.00
12987;BME280;58897;51.960;5.582;2023-07-16T10:34:01;100913.84;;;20.24;100.00
12987;BME280;58897;51.960;5.582;2023-07-16T10:36:28;100913.72;;;20.37;100.00
12987;BME280;58897;51.960;5.582;2023-07-16T10:39:02;100908.94;;;20.33;100.00
12987;BME280;58897;51.960;5.582;2023-07-16T10:41:30;100920.91;;;20.38;100.00
12987;BME280;58897;51.960;5.582;2023-07-16T10:43:58;100924.47;;;20.14;100.00
12987;BME280;58897;51.960;5.582;2023-07-16T10:46:27;100908.88;;;19.83;100.00
12987;BME280;58897;51.960;5.582;2023-07-16T10:48:54;100915.06;;;19.72;100.00
12987;BME280;58897;51.960;5.582;2023-07-16T10:51:25;100913.38;;;19.71;100.00
12987;BME280;58897;51.960;5.582;2023-07-16T10:53:55;100926.72;;;19.61;100.00
12987;BME280;58897;51.960;5.582;2023-07-16T10:56:23;100923.53;;;19.70;100.00
12987;BME280;58897;51.960;5.582;2023-07-16T10:58:50;100924.22;;;19.91;100.00
12987;BME280;58897;51.960;5.582;2023-07-16T11:01:16;100931.47;;;20.10;100.00
12987;BME280;58897;51.960;5.582;2023-07-16T11:03:43;100931.44;;;20.41;100.00
12987;BME280;58897;51.960;5.582;2023-07-16T11:06:13;100942.19;;;20.85;100.00
12987;BME280;58897;51.960;5.582;2023-07-16T11:08:42;100944.41;;;20.52;100.00
12987;BME280;58897;51.960;5.582;2023-07-16T11:11:09;100944.19;;;20.54;100.00
12987;BME280;58897;51.960;5.582;2023-07-16T11:13:36;100951.06;;;20.81;100.00
12987;BME280;58897;51.960;5.582;2023-07-16T11:16:09;100936.13;;;20.59;100.00
12987;BME280;58897;51.960;5.582;2023-07-16T11:18:38;100936.75;;;20.36;100.00
12987;BME280;58897;51.960;5.582;2023-07-16T11:21:06;100938.47;;;20.73;100.00
12987;BME280;58897;51.960;5.582;2023-07-16T11:23:34;100945.06;;;20.72;100.00
12987;BME280;58897;51.960;5.582;2023-07-16T11:26:06;100944.03;;;21.10;100.00
12987;BME280;58897;51.960;5.582;2023-07-16T11:28:40;100945.22;;;21.50;100.00
12987;BME280;58897;51.960;5.582;2023-07-16T11:31:15;100953.56;;;22.03;100.00
12987;BME280;58897;51.960;5.582;2023-07-16T11:33:45;100953.25;;;22.23;100.00
12987;BME280;58897;51.960;5.582;2023-07-16T11:36:12;100953.06;;;21.46;100.00
12987;BME280;58897;51.960;5.582;2023-07-16T11:38:39;100948.47;;;22.53;100.00
12987;BME280;58897;51.960;5.582;2023-07-16T11:41:06;100958.31;;;22.72;100.00
12987;BME280;58897;51.960;5.582;2023-07-16T11:43:36;100952.22;;;22.70;100.00
12987;BME280;58897;51.960;5.582;2023-07-16T11:46:15;100952.31;;;22.98;100.00
12987;BME280;58897;51.960;5.582;2023-07-16T11:48:42;100967.25;;;22.21;100.00
12987;BME280;58897;51.960;5.582;2023-07-16T11:51:09;100964.50;;;22.21;100.00
12987;BME280;58897;51.960;5.582;2023-07-16T11:53:35;100959.22;;;22.43;100.00
12987;BME280;58897;51.960;5.582;2023-07-16T11:56:05;100986.19;;;21.99;100.00
12987;BME280;58897;51.960;5.582;2023-07-16T11:58:32;100988.09;;;21.51;100.00
12987;BME280;58897;51.960;5.582;2023-07-16T12:00:58;100977.44;;;21.43;100.00
12987;BME280;58897;51.960;5.582;2023-07-16T12:03:25;100970.28;;;21.24;100.00
12987;BME280;58897;51.960;5.582;2023-07-16T12:05:52;100970.16;;;20.94;100.00
12987;BME280;58897;51.960;5.582;2023-07-16T12:08:19;100985.06;;;20.62;100.00
12987;BME280;58897;51.960;5.582;2023-07-16T12:10:46;100989.66;;;20.43;100.00
12987;BME280;58897;51.960;5.582;2023-07-16T12:13:13;100992.78;;;20.15;100.00
12987;BME280;58897;51.960;5.582;2023-07-16T12:15:39;100992.50;;;20.79;100.00
12987;BME280;58897;51.960;5.582;2023-07-16T12:18:06;100991.34;;;21.78;100.00
12987;BME280;58897;51.960;5.582;2023-07-16T12:20:34;100991.47;;;21.83;100.00
12987;BME280;58897;51.960;5.582;2023-07-16T12:23:00;100989.69;;;22.71;100.00
12987;BME280;58897;51.960;5.582;2023-07-16T12:25:27;100982.63;;;23.10;100.00
12987;BME280;58897;51.960;5.582;2023-07-16T12:27:53;100985.16;;;22.88;100.00
12987;BME280;58897;51.960;5.582;2023-07-16T12:30:21;100987.50;;;21.97;100.00
12987;BME280;58897;51.960;5.582;2023-07-16T12:32:48;100994.84;;;22.14;100.00
12987;BME280;58897;51.960;5.582;2023-07-16T12:35:15;100990.91;;;22.75;100.00
12987;BME280;58897;51.960;5.582;2023-07-16T12:37:42;100981.66;;;23.95;100.00
12987;BME280;58897;51.960;5.582;2023-07-16T12:40:08;100996.00;;;22.37;100.00
12987;BME280;58897;51.960;5.582;2023-07-16T12:42:35;100995.31;;;22.11;100.00
12987;BME280;58897;51.960;5.582;2023-07-16T12:45:02;100999.63;;;22.07;100.00
12987;BME280;58897;51.960;5.582;2023-07-16T12:47:28;100999.44;;;21.91;100.00
12987;BME280;58897;51.960;5.582;2023-07-16T12:49:55;101004.34;;;21.89;100.00